Hawthorne, California
Current Conditions -  °F | °C
As of 12:53 AM on Monday 24 Nov 2014 (Local Time) from KHHR Reporting Station
Clear Clear  
Wind Chill: 59°   Ceiling: Unl
Heat Index: 59°   Visibility: 10mi
Dew Point: 21°   Wind: 0mph
Humidity: 23%   Direction: NA
Pressure: 30.15"   Gusts: NA
Location:  33.92°N, 118.35°W
Report Text: KHHR 240853Z AUTO 00000KT 10SM CLR 15/M06 A3015 RMK AO2 SLP208 T01501061 58000
Loading
Personal Weather Stations






























Interactive Weather Map New forecast layout! Learn more

10-Day Weather Forecast

Advertisements
Track Severe Weather on mobile